sensor_id;sensor_type;location;lat;lon;timestamp;temperature;humidity
30381;DHT22;17169;50.966;11.038;2022-09-21T00:03:00;8.10;99.90
30381;DHT22;17169;50.966;11.038;2022-09-21T00:06:05;8.10;99.90
30381;DHT22;17169;50.966;11.038;2022-09-21T00:09:08;8.00;99.90
30381;DHT22;17169;50.966;11.038;2022-09-21T00:12:10;7.90;99.90
30381;DHT22;17169;50.966;11.038;2022-09-21T00:15:14;7.90;99.90
30381;DHT22;17169;50.966;11.038;2022-09-21T00:18:17;7.80;99.90
30381;DHT22;17169;50.966;11.038;2022-09-21T00:21:21;7.80;99.90
30381;DHT22;17169;50.966;11.038;2022-09-21T00:24:24;7.80;99.90
30381;DHT22;17169;50.966;11.038;2022-09-21T00:27:27;7.70;99.90
30381;DHT22;17169;50.966;11.038;2022-09-21T00:30:31;7.70;99.90
30381;DHT22;17169;50.966;11.038;2022-09-21T00:33:33;7.70;99.90
30381;DHT22;17169;50.966;11.038;2022-09-21T00:36:37;7.70;99.90
30381;DHT22;17169;50.966;11.038;2022-09-21T00:39:39;7.70;99.90
30381;DHT22;17169;50.966;11.038;2022-09-21T00:42:41;7.70;99.90
30381;DHT22;17169;50.966;11.038;2022-09-21T00:45:46;7.70;99.90
30381;DHT22;17169;50.966;11.038;2022-09-21T00:48:49;7.70;99.90
30381;DHT22;17169;50.966;11.038;2022-09-21T00:51:53;7.70;99.90
30381;DHT22;17169;50.966;11.038;2022-09-21T00:54:57;7.70;99.90
30381;DHT22;17169;50.966;11.038;2022-09-21T00:58:05;7.70;99.90
30381;DHT22;17169;50.966;11.038;2022-09-21T01:01:10;7.70;99.90
30381;DHT22;17169;50.966;11.038;2022-09-21T01:04:14;7.70;99.90
30381;DHT22;17169;50.966;11.038;2022-09-21T01:07:20;7.70;99.90
30381;DHT22;17169;50.966;11.038;2022-09-21T01:10:24;7.70;99.90
30381;DHT22;17169;50.966;11.038;2022-09-21T01:13:32;7.70;99.90
30381;DHT22;17169;50.966;11.038;2022-09-21T01:16:43;7.70;99.90
30381;DHT22;17169;50.966;11.038;2022-09-21T01:20:03;7.60;99.90
30381;DHT22;17169;50.966;11.038;2022-09-21T01:23:22;7.50;99.90
30381;DHT22;17169;50.966;11.038;2022-09-21T01:29:58;7.40;99.90
30381;DHT22;17169;50.966;11.038;2022-09-21T01:33:05;7.30;99.90
30381;DHT22;17169;50.966;11.038;2022-09-21T01:36:13;7.30;99.90
30381;DHT22;17169;50.966;11.038;2022-09-21T01:39:18;7.30;99.90
30381;DHT22;17169;50.966;11.038;2022-09-21T01:42:22;7.30;99.90
30381;DHT22;17169;50.966;11.038;2022-09-21T01:45:30;7.20;99.90
30381;DHT22;17169;50.966;11.038;2022-09-21T01:48:37;7.20;99.90
30381;DHT22;17169;50.966;11.038;2022-09-21T01:51:44;7.20;99.90
30381;DHT22;17169;50.966;11.038;2022-09-21T01:54:50;7.10;99.90
30381;DHT22;17169;50.966;11.038;2022-09-21T01:57:57;7.10;99.90
30381;DHT22;17169;50.966;11.038;2022-09-21T02:01:04;7.10;99.90
30381;DHT22;17169;50.966;11.038;2022-09-21T02:04:11;7.10;99.90
30381;DHT22;17169;50.966;11.038;2022-09-21T02:07:15;7.10;99.90
30381;DHT22;17169;50.966;11.038;2022-09-21T02:10:21;7.10;99.90
30381;DHT22;17169;50.966;11.038;2022-09-21T02:13:25;7.10;99.90
30381;DHT22;17169;50.966;11.038;2022-09-21T02:16:36;7.10;99.90
30381;DHT22;17169;50.966;11.038;2022-09-21T02:19:43;7.10;99.90
30381;DHT22;17169;50.966;11.038;2022-09-21T02:22:59;7.10;99.90
30381;DHT22;17169;50.966;11.038;2022-09-21T02:26:07;7.00;99.90
30381;DHT22;17169;50.966;11.038;2022-09-21T02:29:18;7.00;99.90
30381;DHT22;17169;50.966;11.038;2022-09-21T02:32:27;7.00;99.90
30381;DHT22;17169;50.966;11.038;2022-09-21T02:35:37;7.00;99.90
30381;DHT22;17169;50.966;11.038;2022-09-21T02:38:46;7.00;99.90
30381;DHT22;17169;50.966;11.038;2022-09-21T02:41:55;6.90;99.90
30381;DHT22;17169;50.966;11.038;2022-09-21T02:45:05;6.90;99.90
30381;DHT22;17169;50.966;11.038;2022-09-21T02:48:13;6.80;99.90
30381;DHT22;17169;50.966;11.038;2022-09-21T02:51:20;6.80;99.90
30381;DHT22;17169;50.966;11.038;2022-09-21T02:54:27;6.80;99.90
30381;DHT22;17169;50.966;11.038;2022-09-21T02:57:30;6.80;99.90
30381;DHT22;17169;50.966;11.038;2022-09-21T03:00:33;6.70;99.90
30381;DHT22;17169;50.966;11.038;2022-09-21T03:03:38;6.70;99.90
30381;DHT22;17169;50.966;11.038;2022-09-21T03:06:40;6.60;99.90
30381;DHT22;17169;50.966;11.038;2022-09-21T03:09:43;6.60;99.90
30381;DHT22;17169;50.966;11.038;2022-09-21T03:12:46;6.50;99.90
30381;DHT22;17169;50.966;11.038;2022-09-21T03:15:48;6.50;99.90
30381;DHT22;17169;50.966;11.038;2022-09-21T03:18:52;6.50;99.90
30381;DHT22;17169;50.966;11.038;2022-09-21T03:21:55;6.60;99.90
30381;DHT22;17169;50.966;11.038;2022-09-21T03:24:57;6.60;99.90
30381;DHT22;17169;50.966;11.038;2022-09-21T03:27:59;6.70;99.90
30381;DHT22;17169;50.966;11.038;2022-09-21T03:31:02;6.60;99.90
30381;DHT22;17169;50.966;11.038;2022-09-21T03:34:07;6.60;99.90
30381;DHT22;17169;50.966;11.038;2022-09-21T03:37:10;6.60;99.90
30381;DHT22;17169;50.966;11.038;2022-09-21T03:40:13;6.50;99.90
30381;DHT22;17169;50.966;11.038;2022-09-21T03:43:15;6.50;99.90
30381;DHT22;17169;50.966;11.038;2022-09-21T03:46:18;6.50;99.90
30381;DHT22;17169;50.966;11.038;2022-09-21T03:49:22;6.50;99.90
30381;DHT22;17169;50.966;11.038;2022-09-21T03:52:24;6.40;99.90
30381;DHT22;17169;50.966;11.038;2022-09-21T03:55:27;6.40;99.90
30381;DHT22;17169;50.966;11.038;2022-09-21T03:58:29;6.40;99.90
30381;DHT22;17169;50.966;11.038;2022-09-21T04:01:32;6.40;99.90
30381;DHT22;17169;50.966;11.038;2022-09-21T04:04:36;6.40;99.90
30381;DHT22;17169;50.966;11.038;2022-09-21T04:07:38;6.40;99.90
30381;DHT22;17169;50.966;11.038;2022-09-21T04:10:40;6.40;99.90
30381;DHT22;17169;50.966;11.038;2022-09-21T04:13:43;6.30;99.90
30381;DHT22;17169;50.966;11.038;2022-09-21T04:16:46;6.20;99.90
30381;DHT22;17169;50.966;11.038;2022-09-21T04:19:49;6.20;99.90
30381;DHT22;17169;50.966;11.038;2022-09-21T04:22:52;6.10;99.90
30381;DHT22;17169;50.966;11.038;2022-09-21T04:25:54;6.10;99.90
30381;DHT22;17169;50.966;11.038;2022-09-21T04:28:58;6.00;99.90
30381;DHT22;17169;50.966;11.038;2022-09-21T04:32:01;6.00;99.90
30381;DHT22;17169;50.966;11.038;2022-09-21T04:35:05;6.00;99.90
30381;DHT22;17169;50.966;11.038;2022-09-21T04:38:08;6.00;99.90
30381;DHT22;17169;50.966;11.038;2022-09-21T04:41:10;6.00;99.90
30381;DHT22;17169;50.966;11.038;2022-09-21T04:44:13;6.00;99.90
30381;DHT22;17169;50.966;11.038;2022-09-21T04:47:16;5.90;99.90
30381;DHT22;17169;50.966;11.038;2022-09-21T04:50:20;6.00;99.90
30381;DHT22;17169;50.966;11.038;2022-09-21T04:53:23;5.80;99.90
30381;DHT22;17169;50.966;11.038;2022-09-21T04:56:25;5.90;99.90
30381;DHT22;17169;50.966;11.038;2022-09-21T04:59:27;5.90;99.90
30381;DHT22;17169;50.966;11.038;2022-09-21T05:02:30;5.90;99.90
30381;DHT22;17169;50.966;11.038;2022-09-21T05:05:34;5.90;99.90
30381;DHT22;17169;50.966;11.038;2022-09-21T05:08:36;5.80;99.90
30381;DHT22;17169;50.966;11.038;2022-09-21T05:11:56;5.80;99.90
30381;DHT22;17169;50.966;11.038;2022-09-21T05:14:58;5.70;99.90
30381;DHT22;17169;50.966;11.038;2022-09-21T05:18:01;5.80;99.90
30381;DHT22;17169;50.966;11.038;2022-09-21T05:21:04;5.80;99.90
30381;DHT22;17169;50.966;11.038;2022-09-21T05:24:07;5.80;99.90
30381;DHT22;17169;50.966;11.038;2022-09-21T05:27:10;5.80;99.90
30381;DHT22;17169;50.966;11.038;2022-09-21T05:30:14;5.90;99.90
30381;DHT22;17169;50.966;11.038;2022-09-21T05:33:18;6.00;99.90
30381;DHT22;17169;50.966;11.038;2022-09-21T05:36:33;5.90;99.90
30381;DHT22;17169;50.966;11.038;2022-09-21T05:39:40;6.00;99.90
30381;DHT22;17169;50.966;11.038;2022-09-21T05:42:43;6.00;99.90
30381;DHT22;17169;50.966;11.038;2022-09-21T05:45:49;6.10;99.90
30381;DHT22;17169;50.966;11.038;2022-09-21T05:48:57;6.10;99.90
30381;DHT22;17169;50.966;11.038;2022-09-21T05:52:07;6.20;99.90
30381;DHT22;17169;50.966;11.038;2022-09-21T05:55:20;6.20;99.90
30381;DHT22;17169;50.966;11.038;2022-09-21T05:58:34;6.20;99.90
30381;DHT22;17169;50.966;11.038;2022-09-21T06:01:57;6.30;99.90
30381;DHT22;17169;50.966;11.038;2022-09-21T06:05:01;6.30;99.90
30381;DHT22;17169;50.966;11.038;2022-09-21T06:08:08;6.30;99.90
30381;DHT22;17169;50.966;11.038;2022-09-21T06:11:10;6.40;99.90
30381;DHT22;17169;50.966;11.038;2022-09-21T06:14:13;6.50;99.90
30381;DHT22;17169;50.966;11.038;2022-09-21T06:17:15;6.60;99.90
30381;DHT22;17169;50.966;11.038;2022-09-21T06:20:18;6.70;99.90
30381;DHT22;17169;50.966;11.038;2022-09-21T06:23:22;6.80;99.90
30381;DHT22;17169;50.966;11.038;2022-09-21T06:26:24;6.80;99.90
30381;DHT22;17169;50.966;11.038;2022-09-21T06:29:28;6.90;99.90
30381;DHT22;17169;50.966;11.038;2022-09-21T06:32:30;7.00;99.90
30381;DHT22;17169;50.966;11.038;2022-09-21T06:35:34;7.10;99.90
30381;DHT22;17169;50.966;11.038;2022-09-21T06:38:38;7.20;99.90
30381;DHT22;17169;50.966;11.038;2022-09-21T06:41:40;7.20;99.90
30381;DHT22;17169;50.966;11.038;2022-09-21T06:44:42;7.30;99.90
30381;DHT22;17169;50.966;11.038;2022-09-21T06:47:46;7.40;99.90
30381;DHT22;17169;50.966;11.038;2022-09-21T06:50:48;7.50;99.90
30381;DHT22;17169;50.966;11.038;2022-09-21T06:53:55;7.50;99.90
30381;DHT22;17169;50.966;11.038;2022-09-21T06:56:57;7.70;99.90
30381;DHT22;17169;50.966;11.038;2022-09-21T07:00:00;7.80;99.90
30381;DHT22;17169;50.966;11.038;2022-09-21T07:03:02;7.90;99.90
30381;DHT22;17169;50.966;11.038;2022-09-21T07:06:05;7.90;99.90
30381;DHT22;17169;50.966;11.038;2022-09-21T07:09:10;8.10;99.90
30381;DHT22;17169;50.966;11.038;2022-09-21T07:12:12;8.20;99.90
30381;DHT22;17169;50.966;11.038;2022-09-21T07:15:15;8.20;99.90
30381;DHT22;17169;50.966;11.038;2022-09-21T07:18:17;8.40;99.90
30381;DHT22;17169;50.966;11.038;2022-09-21T07:21:20;8.50;99.90
30381;DHT22;17169;50.966;11.038;2022-09-21T07:24:24;8.60;99.90
30381;DHT22;17169;50.966;11.038;2022-09-21T07:27:28;8.70;99.90
30381;DHT22;17169;50.966;11.038;2022-09-21T07:30:31;8.80;99.90
30381;DHT22;17169;50.966;11.038;2022-09-21T07:33:33;8.80;99.90
30381;DHT22;17169;50.966;11.038;2022-09-21T07:36:36;8.90;99.90
30381;DHT22;17169;50.966;11.038;2022-09-21T07:39:40;9.00;99.90
30381;DHT22;17169;50.966;11.038;2022-09-21T07:42:42;9.10;99.90
30381;DHT22;17169;50.966;11.038;2022-09-21T07:45:51;9.20;99.90
30381;DHT22;17169;50.966;11.038;2022-09-21T07:48:55;9.40;99.90
30381;DHT22;17169;50.966;11.038;2022-09-21T07:51:57;9.50;99.90
30381;DHT22;17169;50.966;11.038;2022-09-21T07:55:01;9.60;99.90
30381;DHT22;17169;50.966;11.038;2022-09-21T07:58:03;9.70;99.90
30381;DHT22;17169;50.966;11.038;2022-09-21T08:01:23;9.80;99.90
30381;DHT22;17169;50.966;11.038;2022-09-21T08:04:26;10.00;99.90
30381;DHT22;17169;50.966;11.038;2022-09-21T08:07:28;10.10;99.90
30381;DHT22;17169;50.966;11.038;2022-09-21T08:10:32;10.20;99.90
30381;DHT22;17169;50.966;11.038;2022-09-21T08:13:35;10.30;99.90
30381;DHT22;17169;50.966;11.038;2022-09-21T08:16:37;10.40;99.90
30381;DHT22;17169;50.966;11.038;2022-09-21T08:19:40;10.50;99.90
30381;DHT22;17169;50.966;11.038;2022-09-21T08:22:42;10.70;99.90
30381;DHT22;17169;50.966;11.038;2022-09-21T08:25:46;10.80;99.90
30381;DHT22;17169;50.966;11.038;2022-09-21T08:28:50;10.90;99.90
30381;DHT22;17169;50.966;11.038;2022-09-21T08:31:53;11.00;99.90
30381;DHT22;17169;50.966;11.038;2022-09-21T08:34:55;11.20;99.90
30381;DHT22;17169;50.966;11.038;2022-09-21T08:37:58;11.40;99.90
30381;DHT22;17169;50.966;11.038;2022-09-21T08:41:13;11.40;99.90
30381;DHT22;17169;50.966;11.038;2022-09-21T08:44:18;11.60;99.90
30381;DHT22;17169;50.966;11.038;2022-09-21T08:47:27;11.60;99.90
30381;DHT22;17169;50.966;11.038;2022-09-21T08:50:38;11.70;99.90
30381;DHT22;17169;50.966;11.038;2022-09-21T08:53:43;11.90;99.90
30381;DHT22;17169;50.966;11.038;2022-09-21T08:56:48;12.00;99.90
30381;DHT22;17169;50.966;11.038;2022-09-21T08:59:50;12.20;99.90
30381;DHT22;17169;50.966;11.038;2022-09-21T09:03:15;12.20;99.90
30381;DHT22;17169;50.966;11.038;2022-09-21T09:06:26;12.40;99.90
30381;DHT22;17169;50.966;11.038;2022-09-21T09:09:52;12.60;99.90
30381;DHT22;17169;50.966;11.038;2022-09-21T09:13:11;12.70;99.90
30381;DHT22;17169;50.966;11.038;2022-09-21T09:16:18;12.80;99.90
30381;DHT22;17169;50.966;11.038;2022-09-21T09:19:33;13.00;99.90
30381;DHT22;17169;50.966;11.038;2022-09-21T09:22:42;13.10;99.90
30381;DHT22;17169;50.966;11.038;2022-09-21T09:25:50;13.10;99.90
30381;DHT22;17169;50.966;11.038;2022-09-21T09:28:57;13.30;99.90
30381;DHT22;17169;50.966;11.038;2022-09-21T09:32:01;13.40;99.90
30381;DHT22;17169;50.966;11.038;2022-09-21T09:35:22;13.50;99.90
30381;DHT22;17169;50.966;11.038;2022-09-21T09:38:29;13.60;99.90
30381;DHT22;17169;50.966;11.038;2022-09-21T09:42:06;13.70;99.90
30381;DHT22;17169;50.966;11.038;2022-09-21T09:49:03;13.90;99.90
30381;DHT22;17169;50.966;11.038;2022-09-21T09:52:10;14.00;99.90
30381;DHT22;17169;50.966;11.038;2022-09-21T09:55:16;14.10;99.90
30381;DHT22;17169;50.966;11.038;2022-09-21T09:58:22;14.20;99.90
30381;DHT22;17169;50.966;11.038;2022-09-21T10:01:57;14.30;99.90
30381;DHT22;17169;50.966;11.038;2022-09-21T10:05:01;14.50;99.90
30381;DHT22;17169;50.966;11.038;2022-09-21T10:08:26;14.40;99.90
30381;DHT22;17169;50.966;11.038;2022-09-21T10:11:37;14.60;99.90
30381;DHT22;17169;50.966;11.038;2022-09-21T10:14:47;14.70;99.90
30381;DHT22;17169;50.966;11.038;2022-09-21T10:18:06;14.80;99.90
30381;DHT22;17169;50.966;11.038;2022-09-21T10:21:16;15.00;99.90
30381;DHT22;17169;50.966;11.038;2022-09-21T10:24:21;15.10;99.90
30381;DHT22;17169;50.966;11.038;2022-09-21T10:27:26;15.20;99.90
30381;DHT22;17169;50.966;11.038;2022-09-21T10:30:32;15.10;99.90
30381;DHT22;17169;50.966;11.038;2022-09-21T10:33:47;15.20;99.90
30381;DHT22;17169;50.966;11.038;2022-09-21T10:36:53;15.40;99.90
30381;DHT22;17169;50.966;11.038;2022-09-21T10:39:56;15.50;99.90
30381;DHT22;17169;50.966;11.038;2022-09-21T10:42:59;15.60;99.90
30381;DHT22;17169;50.966;11.038;2022-09-21T10:46:02;15.70;99.90
30381;DHT22;17169;50.966;11.038;2022-09-21T10:49:14;15.80;99.20
30381;DHT22;17169;50.966;11.038;2022-09-21T10:52:22;15.90;99.00
30381;DHT22;17169;50.966;11.038;2022-09-21T10:55:25;15.90;98.60
30381;DHT22;17169;50.966;11.038;2022-09-21T10:58:30;16.00;98.50
30381;DHT22;17169;50.966;11.038;2022-09-21T11:01:33;15.90;97.90
30381;DHT22;17169;50.966;11.038;2022-09-21T11:04:41;15.90;98.30
30381;DHT22;17169;50.966;11.038;2022-09-21T11:07:49;16.00;98.70
30381;DHT22;17169;50.966;11.038;2022-09-21T11:11:03;16.10;98.70
30381;DHT22;17169;50.966;11.038;2022-09-21T11:14:16;16.30;98.10
30381;DHT22;17169;50.966;11.038;2022-09-21T11:17:29;16.50;97.80
30381;DHT22;17169;50.966;11.038;2022-09-21T11:20:42;16.50;97.10
30381;DHT22;17169;50.966;11.038;2022-09-21T11:24:00;16.50;97.20
30381;DHT22;17169;50.966;11.038;2022-09-21T11:27:08;16.40;97.00
30381;DHT22;17169;50.966;11.038;2022-09-21T11:30:13;16.30;97.40
30381;DHT22;17169;50.966;11.038;2022-09-21T11:33:32;16.20;97.20
30381;DHT22;17169;50.966;11.038;2022-09-21T11:36:45;16.20;96.90
30381;DHT22;17169;50.966;11.038;2022-09-21T11:40:06;16.30;97.40
30381;DHT22;17169;50.966;11.038;2022-09-21T11:43:23;16.40;96.10
30381;DHT22;17169;50.966;11.038;2022-09-21T11:46:36;16.50;95.80
30381;DHT22;17169;50.966;11.038;2022-09-21T11:50:01;16.50;95.40
30381;DHT22;17169;50.966;11.038;2022-09-21T11:53:18;16.60;96.10
30381;DHT22;17169;50.966;11.038;2022-09-21T11:56:37;16.70;96.00
30381;DHT22;17169;50.966;11.038;2022-09-21T11:59:53;16.80;95.80
30381;DHT22;17169;50.966;11.038;2022-09-21T12:03:29;17.00;94.80
30381;DHT22;17169;50.966;11.038;2022-09-21T12:06:48;17.10;95.60
30381;DHT22;17169;50.966;11.038;2022-09-21T12:10:11;17.30;95.60
30381;DHT22;17169;50.966;11.038;2022-09-21T12:13:23;17.40;95.80
30381;DHT22;17169;50.966;11.038;2022-09-21T12:16:34;17.60;95.70
30381;DHT22;17169;50.966;11.038;2022-09-21T12:19:45;17.60;95.40
30381;DHT22;17169;50.966;11.038;2022-09-21T12:22:51;17.70;95.90
30381;DHT22;17169;50.966;11.038;2022-09-21T12:25:58;17.60;95.80
30381;DHT22;17169;50.966;11.038;2022-09-21T12:29:06;17.40;95.20
30381;DHT22;17169;50.966;11.038;2022-09-21T12:32:18;17.20;95.60
30381;DHT22;17169;50.966;11.038;2022-09-21T12:35:27;16.90;95.60
30381;DHT22;17169;50.966;11.038;2022-09-21T12:38:34;16.70;95.70
30381;DHT22;17169;50.966;11.038;2022-09-21T12:41:46;16.50;95.60
30381;DHT22;17169;50.966;11.038;2022-09-21T12:44:55;16.70;95.70
30381;DHT22;17169;50.966;11.038;2022-09-21T12:48:04;16.90;95.10
30381;DHT22;17169;50.966;11.038;2022-09-21T12:51:13;17.20;94.60
30381;DHT22;17169;50.966;11.038;2022-09-21T12:54:21;17.50;94.00
30381;DHT22;17169;50.966;11.038;2022-09-21T12:57:43;17.80;93.80
30381;DHT22;17169;50.966;11.038;2022-09-21T13:01:04;17.90;91.90
30381;DHT22;17169;50.966;11.038;2022-09-21T13:04:23;18.20;92.20
30381;DHT22;17169;50.966;11.038;2022-09-21T13:07:48;18.30;90.90
30381;DHT22;17169;50.966;11.038;2022-09-21T13:10:56;18.50;91.00
30381;DHT22;17169;50.966;11.038;2022-09-21T13:14:03;18.70;90.90
30381;DHT22;17169;50.966;11.038;2022-09-21T13:17:06;18.90;90.80
30381;DHT22;17169;50.966;11.038;2022-09-21T13:20:19;19.10;90.40
30381;DHT22;17169;50.966;11.038;2022-09-21T13:23:25;19.30;90.50
30381;DHT22;17169;50.966;11.038;2022-09-21T13:26:32;19.50;89.80
30381;DHT22;17169;50.966;11.038;2022-09-21T13:29:37;19.70;88.90
30381;DHT22;17169;50.966;11.038;2022-09-21T13:32:50;19.90;89.60
30381;DHT22;17169;50.966;11.038;2022-09-21T13:36:01;20.20;89.10
30381;DHT22;17169;50.966;11.038;2022-09-21T13:39:15;20.80;87.60
30381;DHT22;17169;50.966;11.038;2022-09-21T13:42:42;21.80;87.10
30381;DHT22;17169;50.966;11.038;2022-09-21T13:45:53;22.30;83.10
30381;DHT22;17169;50.966;11.038;2022-09-21T13:48:57;22.30;80.70
30381;DHT22;17169;50.966;11.038;2022-09-21T13:52:02;22.30;81.70
30381;DHT22;17169;50.966;11.038;2022-09-21T13:55:27;22.30;79.10
30381;DHT22;17169;50.966;11.038;2022-09-21T13:58:32;22.30;77.20
30381;DHT22;17169;50.966;11.038;2022-09-21T14:01:38;21.80;77.50
30381;DHT22;17169;50.966;11.038;2022-09-21T14:04:40;21.60;77.30
30381;DHT22;17169;50.966;11.038;2022-09-21T14:07:53;21.10;78.30
30381;DHT22;17169;50.966;11.038;2022-09-21T14:11:00;20.50;79.00
30381;DHT22;17169;50.966;11.038;2022-09-21T14:14:20;20.20;79.70
30381;DHT22;17169;50.966;11.038;2022-09-21T14:17:36;21.80;80.20
30381;DHT22;17169;50.966;11.038;2022-09-21T14:20:39;23.70;75.50
30381;DHT22;17169;50.966;11.038;2022-09-21T14:27:31;27.30;66.30
30381;DHT22;17169;50.966;11.038;2022-09-21T14:30:36;28.90;59.70
30381;DHT22;17169;50.966;11.038;2022-09-21T14:33:44;30.30;56.00
30381;DHT22;17169;50.966;11.038;2022-09-21T14:36:50;31.50;49.90
30381;DHT22;17169;50.966;11.038;2022-09-21T14:39:54;32.70;48.60
30381;DHT22;17169;50.966;11.038;2022-09-21T14:42:59;33.60;44.50
30381;DHT22;17169;50.966;11.038;2022-09-21T14:46:15;34.30;43.20
30381;DHT22;17169;50.966;11.038;2022-09-21T14:49:35;35.00;40.20
30381;DHT22;17169;50.966;11.038;2022-09-21T14:52:53;35.60;38.60
30381;DHT22;17169;50.966;11.038;2022-09-21T14:56:29;35.50;36.80
30381;DHT22;17169;50.966;11.038;2022-09-21T14:59:55;35.60;37.50
30381;DHT22;17169;50.966;11.038;2022-09-21T15:03:17;36.10;36.50
30381;DHT22;17169;50.966;11.038;2022-09-21T15:06:30;36.60;35.80
30381;DHT22;17169;50.966;11.038;2022-09-21T15:10:13;36.10;35.40
30381;DHT22;17169;50.966;11.038;2022-09-21T15:13:45;33.80;35.30
30381;DHT22;17169;50.966;11.038;2022-09-21T15:16:49;31.70;36.40
30381;DHT22;17169;50.966;11.038;2022-09-21T15:19:56;30.10;37.10
30381;DHT22;17169;50.966;11.038;2022-09-21T15:23:16;28.50;38.20
30381;DHT22;17169;50.966;11.038;2022-09-21T15:26:21;27.00;39.60
30381;DHT22;17169;50.966;11.038;2022-09-21T15:29:28;25.80;40.30
30381;DHT22;17169;50.966;11.038;2022-09-21T15:32:35;24.80;42.00
30381;DHT22;17169;50.966;11.038;2022-09-21T15:35:38;23.80;43.30
30381;DHT22;17169;50.966;11.038;2022-09-21T15:38:47;23.00;44.30
30381;DHT22;17169;50.966;11.038;2022-09-21T15:45:18;21.60;47.00
30381;DHT22;17169;50.966;11.038;2022-09-21T15:48:20;21.00;48.50
30381;DHT22;17169;50.966;11.038;2022-09-21T15:51:26;20.50;49.80
30381;DHT22;17169;50.966;11.038;2022-09-21T15:54:34;20.10;51.10
30381;DHT22;17169;50.966;11.038;2022-09-21T15:57:40;19.60;52.60
30381;DHT22;17169;50.966;11.038;2022-09-21T16:00:49;19.30;53.80
30381;DHT22;17169;50.966;11.038;2022-09-21T16:04:02;19.00;54.30
30381;DHT22;17169;50.966;11.038;2022-09-21T16:07:09;18.70;55.40
30381;DHT22;17169;50.966;11.038;2022-09-21T16:10:37;18.50;56.80
30381;DHT22;17169;50.966;11.038;2022-09-21T16:13:41;18.20;56.80
30381;DHT22;17169;50.966;11.038;2022-09-21T16:17:23;18.00;57.80
30381;DHT22;17169;50.966;11.038;2022-09-21T16:20:38;17.70;59.10
30381;DHT22;17169;50.966;11.038;2022-09-21T16:23:40;17.60;59.70
30381;DHT22;17169;50.966;11.038;2022-09-21T16:26:55;17.40;60.10
30381;DHT22;17169;50.966;11.038;2022-09-21T16:29:58;17.30;60.50
30381;DHT22;17169;50.966;11.038;2022-09-21T16:33:01;17.10;60.80
30381;DHT22;17169;50.966;11.038;2022-09-21T16:39:51;16.80;61.80
30381;DHT22;17169;50.966;11.038;2022-09-21T16:42:56;16.70;62.30
30381;DHT22;17169;50.966;11.038;2022-09-21T16:45:59;16.60;63.30
30381;DHT22;17169;50.966;11.038;2022-09-21T16:49:02;16.40;64.00
30381;DHT22;17169;50.966;11.038;2022-09-21T16:52:04;16.30;65.10
30381;DHT22;17169;50.966;11.038;2022-09-21T16:55:09;16.20;65.30
30381;DHT22;17169;50.966;11.038;2022-09-21T16:58:12;16.10;65.90
30381;DHT22;17169;50.966;11.038;2022-09-21T17:01:18;16.00;67.50
30381;DHT22;17169;50.966;11.038;2022-09-21T17:04:23;15.80;67.60
30381;DHT22;17169;50.966;11.038;2022-09-21T17:07:25;15.80;67.80
30381;DHT22;17169;50.966;11.038;2022-09-21T17:10:30;15.60;68.50
30381;DHT22;17169;50.966;11.038;2022-09-21T17:13:36;15.50;69.50
30381;DHT22;17169;50.966;11.038;2022-09-21T17:16:38;15.50;70.40
30381;DHT22;17169;50.966;11.038;2022-09-21T17:19:41;15.40;72.80
30381;DHT22;17169;50.966;11.038;2022-09-21T17:22:43;15.30;74.50
30381;DHT22;17169;50.966;11.038;2022-09-21T17:25:46;15.20;75.90
30381;DHT22;17169;50.966;11.038;2022-09-21T17:28:50;15.10;77.20
30381;DHT22;17169;50.966;11.038;2022-09-21T17:31:55;15.00;78.50
30381;DHT22;17169;50.966;11.038;2022-09-21T17:35:04;14.90;79.00
30381;DHT22;17169;50.966;11.038;2022-09-21T17:38:14;14.80;80.00
30381;DHT22;17169;50.966;11.038;2022-09-21T17:41:22;14.80;81.60
30381;DHT22;17169;50.966;11.038;2022-09-21T17:44:46;14.60;82.60
30381;DHT22;17169;50.966;11.038;2022-09-21T17:47:55;14.50;83.70
30381;DHT22;17169;50.966;11.038;2022-09-21T17:50:58;14.40;84.80
30381;DHT22;17169;50.966;11.038;2022-09-21T17:54:01;14.30;85.30
30381;DHT22;17169;50.966;11.038;2022-09-21T17:57:07;14.30;86.50
30381;DHT22;17169;50.966;11.038;2022-09-21T18:00:18;14.20;88.40
30381;DHT22;17169;50.966;11.038;2022-09-21T18:03:22;14.10;90.00
30381;DHT22;17169;50.966;11.038;2022-09-21T18:06:25;14.00;90.50
30381;DHT22;17169;50.966;11.038;2022-09-21T18:09:28;13.90;91.50
30381;DHT22;17169;50.966;11.038;2022-09-21T18:16:25;13.70;92.60
30381;DHT22;17169;50.966;11.038;2022-09-21T18:19:40;13.60;93.20
30381;DHT22;17169;50.966;11.038;2022-09-21T18:22:52;13.50;93.70
30381;DHT22;17169;50.966;11.038;2022-09-21T18:25:59;13.30;94.50
30381;DHT22;17169;50.966;11.038;2022-09-21T18:29:02;13.20;94.90
30381;DHT22;17169;50.966;11.038;2022-09-21T18:32:27;13.20;95.30
30381;DHT22;17169;50.966;11.038;2022-09-21T18:39:09;13.00;96.50
30381;DHT22;17169;50.966;11.038;2022-09-21T18:42:27;12.90;97.00
30381;DHT22;17169;50.966;11.038;2022-09-21T18:45:36;12.80;97.30
30381;DHT22;17169;50.966;11.038;2022-09-21T18:48:50;12.80;98.00
30381;DHT22;17169;50.966;11.038;2022-09-21T18:51:59;12.60;98.40
30381;DHT22;17169;50.966;11.038;2022-09-21T18:55:21;12.60;99.00
30381;DHT22;17169;50.966;11.038;2022-09-21T18:58:25;12.50;99.10
30381;DHT22;17169;50.966;11.038;2022-09-21T19:01:30;12.40;99.50
30381;DHT22;17169;50.966;11.038;2022-09-21T19:04:35;12.30;99.90
30381;DHT22;17169;50.966;11.038;2022-09-21T19:07:41;12.20;99.90
30381;DHT22;17169;50.966;11.038;2022-09-21T19:10:50;12.20;99.90
30381;DHT22;17169;50.966;11.038;2022-09-21T19:13:59;12.10;99.90
30381;DHT22;17169;50.966;11.038;2022-09-21T19:17:16;12.10;99.90
30381;DHT22;17169;50.966;11.038;2022-09-21T19:20:33;12.00;99.90
30381;DHT22;17169;50.966;11.038;2022-09-21T19:24:02;11.90;99.90
30381;DHT22;17169;50.966;11.038;2022-09-21T19:27:17;11.90;99.90
30381;DHT22;17169;50.966;11.038;2022-09-21T19:30:23;11.80;99.90
30381;DHT22;17169;50.966;11.038;2022-09-21T19:33:29;11.80;99.90
30381;DHT22;17169;50.966;11.038;2022-09-21T19:36:33;11.80;99.90
30381;DHT22;17169;50.966;11.038;2022-09-21T19:39:36;11.70;99.90
30381;DHT22;17169;50.966;11.038;2022-09-21T19:42:57;11.60;99.90
30381;DHT22;17169;50.966;11.038;2022-09-21T19:46:17;11.50;99.90
30381;DHT22;17169;50.966;11.038;2022-09-21T19:49:24;11.50;99.90
30381;DHT22;17169;50.966;11.038;2022-09-21T19:52:33;11.30;99.90
30381;DHT22;17169;50.966;11.038;2022-09-21T19:55:38;11.30;99.90
30381;DHT22;17169;50.966;11.038;2022-09-21T19:58:59;11.20;99.90
30381;DHT22;17169;50.966;11.038;2022-09-21T20:02:30;11.10;99.90
30381;DHT22;17169;50.966;11.038;2022-09-21T20:05:45;11.10;99.90